createdAt,value
2022-08-18T00:01:59.684Z,29.10
2022-08-18T00:06:01.914Z,29.40
2022-08-18T00:10:04.643Z,29.60
2022-08-18T00:14:06.676Z,29.90
2022-08-18T00:18:08.217Z,29.90
2022-08-18T00:22:14.953Z,30.00
2022-08-18T00:26:17.076Z,30.10
2022-08-18T00:30:21.122Z,30.20
2022-08-18T00:34:22.787Z,30.50
2022-08-18T00:38:25.521Z,31.10
2022-08-18T00:42:30.662Z,31.20
2022-08-18T00:46:34.305Z,31.30
2022-08-18T00:50:38.831Z,31.50
2022-08-18T00:54:41.518Z,31.80
2022-08-18T00:58:49.075Z,31.90
2022-08-18T01:02:53.282Z,32.20
2022-08-18T01:06:56.759Z,32.20
2022-08-18T01:11:01.644Z,32.60
2022-08-18T01:15:03.800Z,32.70
2022-08-18T01:19:25.265Z,32.60
2022-08-18T01:23:27.367Z,32.80
2022-08-18T01:27:32.037Z,32.60
2022-08-18T01:31:38.225Z,32.40
2022-08-18T01:35:41.911Z,32.60
2022-08-18T01:41:12.900Z,33.00
2022-08-18T01:44:08.714Z,33.20
2022-08-18T01:48:10.491Z,32.90
2022-08-18T01:52:15.914Z,32.30
2022-08-18T01:56:20.138Z,31.80
2022-08-18T02:00:21.929Z,31.40
2022-08-18T02:04:36.721Z,30.80
2022-08-18T02:08:38.858Z,30.60
2022-08-18T02:12:45.249Z,30.60
2022-08-18T02:16:46.883Z,30.30
2022-08-18T02:20:48.462Z,30.80
2022-08-18T02:24:50.246Z,30.60
2022-08-18T02:28:52.316Z,30.80
2022-08-18T02:32:53.929Z,31.00
2022-08-18T02:36:55.472Z,31.20
2022-08-18T02:40:57.714Z,31.20
2022-08-18T02:44:59.298Z,31.60
2022-08-18T02:49:01.019Z,31.90
2022-08-18T02:53:05.573Z,32.20
2022-08-18T02:57:08.556Z,34.80
2022-08-18T03:01:10.944Z,33.30
2022-08-18T03:05:14.913Z,33.20
2022-08-18T03:09:17.174Z,32.90
2022-08-18T03:13:18.773Z,31.70
2022-08-18T03:17:20.361Z,30.10
2022-08-18T03:21:23.138Z,28.90
2022-08-18T03:25:24.815Z,27.50
2022-08-18T03:29:31.328Z,26.00
2022-08-18T03:33:34.464Z,24.20
2022-08-18T03:37:36.325Z,22.50
2022-08-18T03:41:58.970Z,20.60
2022-08-18T03:46:02.417Z,18.90
2022-08-18T03:50:04.100Z,16.70
2022-08-18T03:54:05.816Z,14.50
2022-08-18T03:58:07.400Z,12.50
2022-08-18T04:02:10.654Z,10.70
2022-08-18T04:06:30.052Z,9.00
2022-08-18T04:10:32.229Z,7.10
2022-08-18T04:14:33.768Z,4.70
2022-08-18T04:18:35.348Z,2.20
2022-08-18T04:22:37.030Z,1.00
2022-08-18T04:26:40.593Z,1.00
2022-08-18T04:30:42.123Z,1.00
2022-08-18T04:34:43.711Z,1.00
2022-08-18T04:38:45.274Z,1.00
2022-08-18T04:42:46.817Z,1.00
2022-08-18T04:46:54.220Z,1.00
2022-08-18T04:50:55.760Z,1.00
2022-08-18T04:54:57.332Z,1.00
2022-08-18T04:59:04.491Z,1.00
2022-08-18T05:03:06.009Z,1.00
2022-08-18T05:07:09.145Z,1.00
2022-08-18T05:11:10.720Z,1.00
2022-08-18T05:15:12.265Z,1.00
2022-08-18T05:19:14.798Z,1.00
2022-08-18T05:23:17.176Z,1.00
2022-08-18T05:27:18.721Z,1.00
2022-08-18T05:31:22.479Z,1.00
2022-08-18T05:35:26.447Z,1.00
2022-08-18T05:39:31.182Z,1.00
2022-08-18T05:43:32.969Z,1.00
2022-08-18T05:47:34.577Z,1.00
2022-08-18T05:51:39.823Z,1.00
2022-08-18T05:56:04.389Z,1.00
2022-08-18T06:00:08.501Z,1.00
2022-08-18T06:04:23.426Z,1.00
2022-08-18T06:08:27.605Z,1.00
2022-08-18T06:12:33.435Z,1.00
2022-08-18T06:16:54.689Z,1.00
2022-08-18T06:21:11.650Z,1.00
2022-08-18T06:25:20.123Z,1.00
2022-08-18T06:29:27.706Z,1.00
2022-08-18T06:33:37.403Z,1.00
2022-08-18T06:38:02.560Z,1.00
2022-08-18T06:42:05.576Z,1.00
2022-08-18T06:46:15.162Z,1.00
2022-08-18T06:50:20.059Z,1.30
2022-08-18T06:54:21.553Z,2.70
2022-08-18T06:58:29.823Z,4.00
2022-08-18T07:02:39.119Z,5.30
2022-08-18T07:06:41.331Z,6.80
2022-08-18T07:10:48.017Z,8.00
2022-08-18T07:14:54.323Z,9.30
2022-08-18T07:19:06.173Z,10.00
2022-08-18T07:23:08.545Z,10.60
2022-08-18T07:27:17.882Z,11.00
2022-08-18T07:31:24.801Z,11.60
2022-08-18T07:35:39.259Z,12.10
2022-08-18T07:39:48.449Z,12.60
2022-08-18T07:43:51.189Z,13.30
2022-08-18T07:48:15.713Z,13.90
2022-08-18T07:52:44.307Z,14.40
2022-08-18T07:57:09.052Z,14.90
2022-08-18T08:01:34.082Z,15.40
2022-08-18T08:05:40.422Z,15.90
2022-08-18T08:09:51.652Z,16.50
2022-08-18T08:14:12.508Z,17.00
2022-08-18T08:18:21.482Z,17.60
2022-08-18T08:22:43.863Z,18.10
2022-08-18T08:27:04.422Z,18.30
2022-08-18T08:31:36.203Z,18.70
2022-08-18T08:35:50.974Z,19.40
2022-08-18T08:40:13.125Z,20.10
2022-08-18T08:44:33.774Z,20.80
2022-08-18T08:48:39.437Z,21.40
2022-08-18T08:52:56.970Z,22.00
2022-08-18T08:57:00.067Z,22.40
2022-08-18T09:01:02.109Z,23.00
2022-08-18T09:05:08.378Z,23.60
2022-08-18T09:09:23.977Z,24.40
2022-08-18T09:13:39.023Z,25.20
2022-08-18T09:17:43.809Z,25.90
2022-08-18T09:21:45.444Z,26.80
2022-08-18T09:25:51.972Z,27.20
2022-08-18T09:29:53.476Z,27.60
2022-08-18T09:34:17.112Z,28.10
2022-08-18T09:38:43.763Z,28.90
2022-08-18T09:42:53.745Z,29.50
2022-08-18T09:46:58.919Z,30.30
2022-08-18T09:55:39.889Z,32.70
2022-08-18T09:59:56.584Z,33.40
2022-08-18T10:13:46.562Z,35.10
2022-08-18T10:17:56.861Z,35.60
2022-08-18T10:21:58.846Z,36.00
2022-08-18T10:26:04.291Z,36.30
2022-08-18T10:30:06.467Z,36.20
2022-08-18T10:34:33.726Z,36.30
2022-08-18T10:38:40.570Z,36.20
2022-08-18T10:42:53.964Z,36.00
2022-08-18T10:46:57.010Z,35.60
2022-08-18T10:51:11.271Z,37.90
2022-08-18T10:55:48.894Z,36.30
2022-08-18T10:59:58.203Z,36.80
2022-08-18T11:08:26.639Z,37.50
2022-08-18T11:12:54.343Z,38.20
2022-08-18T11:17:02.714Z,38.10
2022-08-18T11:21:22.864Z,38.00
2022-08-18T11:25:29.089Z,37.70
2022-08-18T11:29:32.878Z,37.50
2022-08-18T11:33:34.545Z,37.60
2022-08-18T11:37:49.760Z,37.70
2022-08-18T11:41:55.357Z,37.50
2022-08-18T11:46:17.513Z,36.90
2022-08-18T11:50:27.405Z,36.90
2022-08-18T11:54:40.002Z,36.50
2022-08-18T11:58:58.273Z,36.30
2022-08-18T12:03:04.161Z,36.10
2022-08-18T12:07:09.931Z,36.20
2022-08-18T12:11:26.454Z,35.90
2022-08-18T12:19:53.085Z,35.50
2022-08-18T12:23:54.698Z,35.40
2022-08-18T12:27:56.333Z,35.00
2022-08-18T12:31:57.882Z,34.70
2022-08-18T12:36:00.191Z,34.50
2022-08-18T12:40:02.000Z,34.30
2022-08-18T12:44:03.725Z,33.80
2022-08-18T12:48:11.903Z,33.40
2022-08-18T12:52:14.200Z,33.30
2022-08-18T12:56:30.343Z,33.30
2022-08-18T13:00:32.564Z,33.50
2022-08-18T13:04:34.096Z,33.60
2022-08-18T13:08:47.854Z,33.70
2022-08-18T13:12:51.875Z,34.70
2022-08-18T13:16:55.148Z,33.70
2022-08-18T13:20:57.670Z,33.90
2022-08-18T13:25:01.008Z,33.70
2022-08-18T13:29:03.093Z,33.30
2022-08-18T13:33:33.895Z,33.20
2022-08-18T13:37:28.511Z,32.50
2022-08-18T13:41:32.327Z,32.60
2022-08-18T13:45:34.210Z,32.30
2022-08-18T13:49:36.038Z,32.20
2022-08-18T13:53:50.641Z,32.50
2022-08-18T13:57:53.764Z,32.80
2022-08-18T14:01:56.033Z,32.70
2022-08-18T14:06:02.818Z,32.90
2022-08-18T14:10:07.013Z,33.00
2022-08-18T14:14:12.566Z,33.00
2022-08-18T14:18:16.976Z,33.20
2022-08-18T14:22:37.347Z,33.40
2022-08-18T14:26:50.030Z,33.30
2022-08-18T14:30:54.673Z,33.80
2022-08-18T14:35:00.001Z,34.00
2022-08-18T14:39:02.962Z,34.00
2022-08-18T14:43:06.526Z,34.20
2022-08-18T14:47:09.565Z,34.20
2022-08-18T14:51:12.577Z,34.10
2022-08-18T14:55:16.834Z,34.20
2022-08-18T14:59:18.375Z,34.00
2022-08-18T15:03:21.395Z,34.00
2022-08-18T15:07:32.710Z,34.20
2022-08-18T15:11:34.470Z,34.20
2022-08-18T15:15:50.604Z,34.30
2022-08-18T15:19:59.402Z,34.00
2022-08-18T15:24:20.883Z,33.90
2022-08-18T15:28:25.318Z,33.50
2022-08-18T15:32:26.946Z,33.20
2022-08-18T15:36:31.220Z,33.30
2022-08-18T15:40:41.437Z,33.30
2022-08-18T15:44:45.147Z,33.20
2022-08-18T15:48:46.694Z,33.20
2022-08-18T15:56:59.084Z,33.80
2022-08-18T16:01:00.634Z,34.20
2022-08-18T16:05:09.053Z,34.50
2022-08-18T16:09:12.186Z,34.90
2022-08-18T16:13:14.637Z,35.40
2022-08-18T16:17:23.772Z,35.80
2022-08-18T16:21:31.693Z,36.30
2022-08-18T16:25:33.481Z,37.00
2022-08-18T16:29:35.276Z,37.30
2022-08-18T16:33:36.806Z,37.90
2022-08-18T16:37:38.400Z,38.10
2022-08-18T16:41:39.980Z,37.90
2022-08-18T16:45:42.942Z,38.00
2022-08-18T16:49:45.474Z,38.20
2022-08-18T16:53:47.685Z,38.30
2022-08-18T16:58:07.865Z,38.70
2022-08-18T17:02:28.520Z,39.20
2022-08-18T17:06:30.344Z,39.80
2022-08-18T17:10:37.777Z,40.40
2022-08-18T17:14:39.386Z,41.20
2022-08-18T17:18:41.190Z,42.20
2022-08-18T17:22:42.730Z,42.80
2022-08-18T17:26:59.738Z,43.70
2022-08-18T17:31:01.349Z,44.80
2022-08-18T17:35:08.216Z,45.40
2022-08-18T17:39:11.748Z,45.50
2022-08-18T17:48:07.487Z,46.40
2022-08-18T17:52:09.279Z,47.30
2022-08-18T17:56:35.373Z,47.90
2022-08-18T18:00:37.341Z,48.70
2022-08-18T18:04:42.710Z,49.60
2022-08-18T18:08:55.875Z,50.20
2022-08-18T18:13:15.740Z,52.70
2022-08-18T18:17:18.949Z,51.20
2022-08-18T18:21:22.954Z,51.80
2022-08-18T18:25:44.617Z,52.50
2022-08-18T18:29:52.056Z,53.30
2022-08-18T18:33:57.910Z,54.00
2022-08-18T18:38:01.590Z,56.70
2022-08-18T18:42:10.325Z,55.40
2022-08-18T18:46:23.405Z,56.30
2022-08-18T18:50:33.457Z,57.00
2022-08-18T18:54:50.904Z,57.60
2022-08-18T18:58:58.400Z,58.20
2022-08-18T19:03:06.920Z,61.40
2022-08-18T19:07:21.136Z,60.30
2022-08-18T19:11:46.218Z,62.00
2022-08-18T19:15:47.810Z,63.80
2022-08-18T19:19:51.726Z,65.00
2022-08-18T19:24:13.514Z,66.80
2022-08-18T19:28:29.781Z,68.10
2022-08-18T19:32:34.237Z,69.50
2022-08-18T19:36:51.778Z,71.10
2022-08-18T19:41:12.965Z,72.80
2022-08-18T19:45:30.767Z,74.40
2022-08-18T19:49:35.981Z,75.50
2022-08-18T19:53:52.704Z,76.30
2022-08-18T19:58:05.898Z,76.80
2022-08-18T20:02:25.228Z,77.20
2022-08-18T20:06:44.608Z,77.40
2022-08-18T20:10:55.178Z,78.50
2022-08-18T20:15:16.531Z,78.80
2022-08-18T20:19:37.013Z,79.40
2022-08-18T20:23:56.965Z,79.10
2022-08-18T20:27:58.488Z,78.70
2022-08-18T20:32:01.437Z,78.20
2022-08-18T20:36:12.964Z,77.50
2022-08-18T20:40:41.028Z,76.70
2022-08-18T20:44:48.721Z,76.30
2022-08-18T20:48:50.301Z,76.10
2022-08-18T20:53:01.182Z,75.60
2022-08-18T20:57:06.537Z,75.20
2022-08-18T21:01:08.590Z,75.20
2022-08-18T21:05:10.545Z,75.10
2022-08-18T21:09:21.954Z,74.30
2022-08-18T21:13:31.470Z,73.60
2022-08-18T21:17:33.087Z,72.90
2022-08-18T21:21:36.508Z,72.20
2022-08-18T21:25:47.720Z,71.80
2022-08-18T21:29:51.387Z,71.30
2022-08-18T21:33:54.575Z,70.80
2022-08-18T21:37:56.186Z,71.10
2022-08-18T21:41:58.048Z,70.90
2022-08-18T21:46:02.979Z,70.50
2022-08-18T21:50:10.660Z,70.40
2022-08-18T21:54:15.521Z,71.00
2022-08-18T21:58:33.914Z,70.90
2022-08-18T22:02:35.985Z,71.20
2022-08-18T22:06:40.375Z,71.40
2022-08-18T22:11:02.867Z,71.70
2022-08-18T22:15:06.307Z,71.70
2022-08-18T22:19:21.290Z,71.50
2022-08-18T22:23:46.526Z,71.40
2022-08-18T22:27:49.303Z,71.10
2022-08-18T22:31:51.881Z,71.00
2022-08-18T22:35:54.395Z,71.00
2022-08-18T22:39:57.898Z,71.20
2022-08-18T22:44:00.598Z,71.00
2022-08-18T22:48:02.836Z,71.50
2022-08-18T22:52:19.687Z,71.70
2022-08-18T22:56:33.914Z,72.10
2022-08-18T23:00:36.446Z,72.50
2022-08-18T23:04:38.048Z,72.60
2022-08-18T23:08:55.435Z,72.70
2022-08-18T23:13:02.196Z,73.10
2022-08-18T23:17:05.845Z,72.90
2022-08-18T23:21:07.405Z,72.80
2022-08-18T23:25:09.601Z,73.10
2022-08-18T23:29:12.463Z,72.90
2022-08-18T23:33:14.842Z,72.80
2022-08-18T23:37:16.405Z,73.10
2022-08-18T23:41:17.929Z,73.10
2022-08-18T23:45:20.405Z,73.00
2022-08-18T23:49:23.238Z,72.80
2022-08-18T23:53:24.762Z,73.00
2022-08-18T23:57:26.538Z,72.80
